Main page
METAR-TAF:

METAR-TAF

Airports :

City of Derry Airport

Derry, Northern Ireland

latitude: 55-03N, longitude: 007-09W, elevation: 9 m

Current weather observation

The report was made 8 hours and 44 minutes ago, at 19:50 UTC
Wind 10 kt from the Southwest
Temperature 16°C
Humidity 77%
Pressure 1005 hPa
Visibility 10 km or more
Few clouds at a height of 1300 ft
Scattered clouds at a height of 2200 ft

METAR: EGAE 151950Z 23010KT 9999 FEW013 SCT022 16/12 Q1005

Time: 05:34 (04:34 UTC)

Forecast

The report was made 14 hours and 37 minutes ago, at 13:57 UTC
Forecast valid from 15 at 15 UTC to 15 at 20 UTC
Wind 13 kt from the Southwest
Visibility 10 km or more
Scattered clouds at a height of 2000 ft
Temporary
from 15 at 15 UTC to 15 at 20 UTC
Visibility: 7000 m
rain
Temporary
from 15 at 15 UTC to 15 at 18 UTC
Wind 16 kt from the Southwest with gusts up to 26 kt

TAF: EGAE 151357Z 1515/1520 22013KT 9999 SCT020 TEMPO 1515/1520 7000 RA TEMPO 1515/1518 23016G26KT

Weather observations and forecasts of more than 4000 airports (METAR and TAF reports).

The available stations are represented by yellow and red dots on the map.

Hover mouse over dot to see the name of the station.

Then click to see weather observations and forecasts.

To change the map : click on the green buttons with a black cross to zoom in, on the green button with a dash to zoom out, or on the green arrows for adjacent maps.


METAR-TAF: